createdAt,value
2023-03-05T00:01:34.933Z,28.90
2023-03-05T00:04:04.976Z,29.00
2023-03-05T00:06:33.481Z,28.90
2023-03-05T00:09:01.375Z,29.00
2023-03-05T00:11:31.958Z,29.00
2023-03-05T00:14:01.266Z,29.00
2023-03-05T00:16:29.522Z,29.00
2023-03-05T00:18:59.500Z,29.00
2023-03-05T00:21:32.684Z,29.00
2023-03-05T00:24:01.681Z,29.00
2023-03-05T00:26:29.921Z,29.00
2023-03-05T00:28:58.777Z,29.00
2023-03-05T00:31:32.409Z,29.00
2023-03-05T00:34:07.533Z,29.10
2023-03-05T00:36:35.334Z,29.10
2023-03-05T00:39:02.476Z,29.00
2023-03-05T00:41:29.538Z,29.30
2023-03-05T00:43:56.568Z,29.10
2023-03-05T00:46:24.342Z,29.10
2023-03-05T00:48:51.345Z,29.10
2023-03-05T00:51:18.311Z,29.20
2023-03-05T00:53:45.574Z,29.10
2023-03-05T00:56:13.252Z,29.40
2023-03-05T00:58:40.462Z,29.20
2023-03-05T01:01:07.646Z,29.20
2023-03-05T01:03:35.832Z,29.20
2023-03-05T01:06:07.446Z,29.30
2023-03-05T01:08:35.645Z,29.30
2023-03-05T01:11:06.133Z,29.20
2023-03-05T01:13:33.688Z,29.30
2023-03-05T01:16:01.420Z,29.30
2023-03-05T01:18:28.577Z,29.30
2023-03-05T01:20:55.608Z,29.30
2023-03-05T01:23:22.856Z,29.40
2023-03-05T01:26:00.242Z,29.30
2023-03-05T01:28:28.538Z,29.50
2023-03-05T01:30:56.194Z,29.40
2023-03-05T01:33:23.174Z,29.40
2023-03-05T01:35:51.089Z,29.40
2023-03-05T01:38:18.655Z,29.40
2023-03-05T01:40:45.755Z,29.40
2023-03-05T01:43:12.726Z,29.40
2023-03-05T01:46:19.365Z,29.40
2023-03-05T01:48:52.757Z,29.50
2023-03-05T01:51:25.409Z,29.40
2023-03-05T01:53:54.930Z,29.50
2023-03-05T01:56:22.369Z,29.50
2023-03-05T01:58:51.017Z,29.50
2023-03-05T02:01:19.534Z,29.50
2023-03-05T02:03:48.427Z,29.50
2023-03-05T02:06:15.473Z,29.50
2023-03-05T02:08:42.924Z,29.50
2023-03-05T02:11:10.097Z,29.50
2023-03-05T02:13:40.910Z,29.50
2023-03-05T02:16:08.500Z,29.60
2023-03-05T02:18:35.440Z,29.60
2023-03-05T02:21:07.868Z,29.60
2023-03-05T02:23:36.945Z,29.60
2023-03-05T02:26:10.473Z,29.60
2023-03-05T02:28:46.899Z,29.70
2023-03-05T02:31:25.401Z,29.70
2023-03-05T02:33:55.921Z,29.60
2023-03-05T02:36:24.029Z,29.60
2023-03-05T02:38:52.932Z,30.00
2023-03-05T02:41:20.018Z,29.60
2023-03-05T02:43:46.980Z,29.60
2023-03-05T02:46:14.031Z,29.60
2023-03-05T02:48:41.078Z,29.70
2023-03-05T02:51:08.677Z,29.70
2023-03-05T02:53:35.957Z,29.70
2023-03-05T02:56:04.373Z,29.70
2023-03-05T02:58:31.337Z,29.70
2023-03-05T03:00:58.796Z,29.70
2023-03-05T03:03:30.130Z,29.70
2023-03-05T03:06:01.766Z,29.70
2023-03-05T03:08:32.094Z,29.70
2023-03-05T03:11:15.963Z,29.70
2023-03-05T03:13:43.479Z,29.90
2023-03-05T03:16:14.777Z,29.70
2023-03-05T03:18:42.326Z,29.80
2023-03-05T03:21:09.349Z,29.70
2023-03-05T03:23:36.262Z,29.70
2023-03-05T03:26:03.342Z,29.80
2023-03-05T03:28:30.239Z,29.80
2023-03-05T03:30:57.191Z,29.80
2023-03-05T03:33:24.260Z,29.80
2023-03-05T03:35:51.230Z,29.80
2023-03-05T03:38:18.575Z,29.80
2023-03-05T03:40:45.483Z,29.90
2023-03-05T03:43:12.504Z,29.80
2023-03-05T03:45:44.501Z,29.90
2023-03-05T03:48:12.372Z,29.90
2023-03-05T03:50:44.242Z,29.90
2023-03-05T03:53:14.242Z,29.90
2023-03-05T03:55:46.660Z,29.90
2023-03-05T03:58:13.949Z,30.00
2023-03-05T04:00:41.864Z,29.90
2023-03-05T04:03:09.404Z,29.90
2023-03-05T04:05:36.352Z,29.90
2023-03-05T04:08:03.523Z,29.90
2023-03-05T04:10:30.484Z,29.90
2023-03-05T04:12:57.641Z,29.90
2023-03-05T04:15:25.114Z,30.00
2023-03-05T04:17:52.240Z,29.90
2023-03-05T04:20:19.267Z,29.90
2023-03-05T04:22:46.379Z,30.00
2023-03-05T04:25:13.399Z,30.00
2023-03-05T04:27:40.589Z,30.00
2023-03-05T04:30:11.405Z,30.00
2023-03-05T04:32:38.364Z,30.00
2023-03-05T04:35:05.631Z,29.90
2023-03-05T04:37:33.288Z,30.00
2023-03-05T04:40:00.283Z,30.00
2023-03-05T04:42:27.296Z,30.00
2023-03-05T04:44:54.242Z,30.00
2023-03-05T04:47:21.350Z,30.00
2023-03-05T04:49:48.343Z,30.00
2023-03-05T04:52:15.894Z,30.00
2023-03-05T04:54:45.483Z,30.00
2023-03-05T04:57:12.673Z,30.00
2023-03-05T04:59:39.747Z,30.00
2023-03-05T05:02:06.924Z,30.10
2023-03-05T05:04:36.704Z,30.00
2023-03-05T05:07:04.872Z,30.00
2023-03-05T05:09:31.842Z,30.00
2023-03-05T05:11:58.828Z,30.10
2023-03-05T05:14:25.846Z,30.10
2023-03-05T05:16:52.878Z,30.00
2023-03-05T05:19:20.030Z,30.00
2023-03-05T05:21:47.529Z,30.10
2023-03-05T05:24:14.410Z,30.10
2023-03-05T05:26:41.433Z,30.10
2023-03-05T05:29:08.369Z,30.10
2023-03-05T05:31:35.355Z,30.10
2023-03-05T05:34:02.305Z,30.10
2023-03-05T05:36:29.429Z,30.20
2023-03-05T05:38:56.393Z,30.20
2023-03-05T05:41:23.736Z,30.80
2023-03-05T05:43:51.496Z,30.20
2023-03-05T05:46:20.659Z,30.20
2023-03-05T05:48:48.293Z,30.20
2023-03-05T05:51:21.354Z,30.20
2023-03-05T05:53:49.311Z,30.30
2023-03-05T05:56:17.267Z,30.20
2023-03-05T05:58:47.822Z,30.20
2023-03-05T06:01:26.551Z,30.30
2023-03-05T06:03:53.992Z,30.40
2023-03-05T06:06:24.666Z,30.50
2023-03-05T06:08:55.861Z,30.30
2023-03-05T06:11:23.107Z,30.20
2023-03-05T06:13:50.896Z,30.20
2023-03-05T06:16:24.001Z,31.00
2023-03-05T06:18:52.619Z,30.30
2023-03-05T06:21:22.007Z,30.30
2023-03-05T06:23:50.378Z,30.30
2023-03-05T06:26:20.921Z,30.30
2023-03-05T06:28:48.394Z,30.40
2023-03-05T06:31:25.903Z,30.30
2023-03-05T06:33:56.302Z,30.40
2023-03-05T06:36:25.814Z,30.40
2023-03-05T06:38:53.775Z,30.40
2023-03-05T06:41:26.764Z,30.40
2023-03-05T06:43:57.311Z,30.40
2023-03-05T06:46:31.488Z,30.40
2023-03-05T06:49:02.166Z,30.40
2023-03-05T06:51:35.586Z,30.40
2023-03-05T06:54:07.544Z,30.50
2023-03-05T06:56:37.074Z,30.40
2023-03-05T06:59:04.680Z,30.40
2023-03-05T07:01:35.632Z,30.50
2023-03-05T07:04:03.306Z,30.50
2023-03-05T07:06:35.186Z,30.50
2023-03-05T07:09:05.072Z,30.60
2023-03-05T07:11:33.982Z,30.50
2023-03-05T07:14:01.484Z,30.50
2023-03-05T07:16:32.837Z,30.50
2023-03-05T07:19:04.422Z,30.60
2023-03-05T07:21:35.976Z,30.60
2023-03-05T07:24:05.242Z,30.60
2023-03-05T07:26:36.116Z,30.60
2023-03-05T07:29:03.849Z,30.50
2023-03-05T07:31:31.906Z,30.50
2023-03-05T07:34:01.650Z,30.60
2023-03-05T07:36:30.805Z,30.60
2023-03-05T07:38:57.998Z,30.60
2023-03-05T07:41:25.184Z,30.60
2023-03-05T07:43:54.615Z,30.60
2023-03-05T07:46:27.073Z,30.60
2023-03-05T07:48:55.376Z,30.60
2023-03-05T07:51:24.594Z,30.50
2023-03-05T07:53:56.142Z,30.60
2023-03-05T07:56:35.538Z,30.60
2023-03-05T07:59:06.882Z,30.80
2023-03-05T08:01:35.606Z,30.60
2023-03-05T08:04:05.218Z,30.60
2023-03-05T08:06:32.738Z,30.60
2023-03-05T08:09:00.620Z,30.60
2023-03-05T08:11:28.682Z,30.60
2023-03-05T08:13:59.627Z,30.60
2023-03-05T08:16:27.516Z,30.60
2023-03-05T08:18:57.398Z,30.60
2023-03-05T08:21:33.715Z,30.60
2023-03-05T08:24:08.181Z,30.70
2023-03-05T08:26:41.194Z,30.60
2023-03-05T08:29:10.445Z,30.70
2023-03-05T08:31:38.945Z,30.70
2023-03-05T08:34:06.867Z,30.80
2023-03-05T08:36:33.909Z,30.70
2023-03-05T08:39:00.984Z,30.70
2023-03-05T08:41:28.263Z,30.80
2023-03-05T08:43:57.793Z,30.80
2023-03-05T08:46:28.178Z,30.70
2023-03-05T08:48:56.794Z,30.80
2023-03-05T08:51:26.271Z,30.80
2023-03-05T08:53:58.361Z,30.80
2023-03-05T08:56:27.515Z,30.80
2023-03-05T08:58:54.691Z,30.80
2023-03-05T09:01:22.648Z,30.80
2023-03-05T09:03:49.803Z,30.80
2023-03-05T09:06:16.937Z,30.80
2023-03-05T09:08:43.854Z,30.80
2023-03-05T09:11:13.226Z,30.80
2023-03-05T09:13:40.721Z,30.80
2023-03-05T09:16:12.663Z,30.80
2023-03-05T09:18:40.865Z,30.80
2023-03-05T09:21:15.662Z,30.80
2023-03-05T09:23:44.083Z,30.80
2023-03-05T09:26:13.717Z,30.80
2023-03-05T09:28:41.408Z,30.70
2023-03-05T09:31:09.769Z,30.80
2023-03-05T09:33:37.920Z,30.80
2023-03-05T09:36:15.260Z,30.90
2023-03-05T09:38:42.556Z,30.90
2023-03-05T09:41:17.763Z,30.80
2023-03-05T09:43:58.778Z,30.90
2023-03-05T09:46:51.083Z,30.90
2023-03-05T09:49:44.089Z,30.90
2023-03-05T09:52:51.843Z,30.80
2023-03-05T09:55:44.723Z,30.90
2023-03-05T09:58:18.904Z,30.80
2023-03-05T10:00:51.158Z,30.80
2023-03-05T10:03:28.650Z,30.90
2023-03-05T10:06:30.213Z,30.90
2023-03-05T10:09:11.228Z,30.90
2023-03-05T10:12:05.726Z,30.90
2023-03-05T10:14:38.528Z,31.00
2023-03-05T10:17:56.221Z,30.90
2023-03-05T10:20:37.238Z,30.90
2023-03-05T10:23:24.813Z,30.90
2023-03-05T10:27:02.032Z,30.90
2023-03-05T10:29:53.819Z,31.00
2023-03-05T10:32:44.521Z,30.90
2023-03-05T10:35:26.586Z,31.00
2023-03-05T10:38:04.686Z,30.90
2023-03-05T10:40:52.270Z,30.90
2023-03-05T10:43:34.328Z,30.90
2023-03-05T10:46:03.956Z,30.90
2023-03-05T10:49:05.390Z,31.00
2023-03-05T10:51:44.443Z,31.00
2023-03-05T10:54:33.993Z,31.00
2023-03-05T10:57:21.952Z,31.00
2023-03-05T11:00:22.244Z,31.00
2023-03-05T11:03:10.765Z,31.00
2023-03-05T11:06:02.648Z,30.90
2023-03-05T11:08:40.777Z,30.90
2023-03-05T11:11:19.165Z,30.80
2023-03-05T11:14:01.222Z,30.90
2023-03-05T11:16:35.240Z,30.90
2023-03-05T11:19:24.469Z,30.80
2023-03-05T11:22:11.154Z,30.90
2023-03-05T11:24:38.624Z,30.80
2023-03-05T11:27:38.034Z,31.20
2023-03-05T11:30:27.276Z,31.20
2023-03-05T11:33:27.530Z,31.30
2023-03-05T11:36:37.570Z,31.40
2023-03-05T11:39:10.250Z,31.50
2023-03-05T11:41:53.616Z,31.70
2023-03-05T11:44:30.670Z,31.80
2023-03-05T11:47:19.419Z,32.10
2023-03-05T11:49:51.358Z,32.20
2023-03-05T11:52:45.057Z,32.30
2023-03-05T11:55:22.396Z,32.40
2023-03-05T11:58:47.036Z,32.50
2023-03-05T12:01:25.831Z,32.50
2023-03-05T12:03:55.520Z,32.40
2023-03-05T12:06:43.284Z,32.40
2023-03-05T12:09:45.760Z,32.10
2023-03-05T12:12:59.332Z,32.00
2023-03-05T12:15:33.420Z,31.90
2023-03-05T12:18:48.564Z,31.90
2023-03-05T12:21:37.092Z,31.80
2023-03-05T12:24:27.330Z,31.70
2023-03-05T12:27:04.118Z,31.50
2023-03-05T12:29:43.381Z,31.70
2023-03-05T12:32:22.771Z,31.80
2023-03-05T12:35:18.191Z,31.50
2023-03-05T12:37:45.297Z,31.60
2023-03-05T12:40:23.083Z,31.60
2023-03-05T12:42:54.035Z,31.60
2023-03-05T12:45:28.736Z,31.60
2023-03-05T12:47:55.690Z,31.50
2023-03-05T12:50:28.762Z,31.30
2023-03-05T12:53:11.523Z,31.40
2023-03-05T12:55:47.329Z,31.60
2023-03-05T12:58:50.773Z,31.40
2023-03-05T13:01:31.940Z,31.40
2023-03-05T13:04:10.646Z,31.50
2023-03-05T13:06:39.474Z,31.40
2023-03-05T13:09:28.416Z,31.50
2023-03-05T13:11:56.425Z,31.30
2023-03-05T13:14:35.154Z,31.50
2023-03-05T13:17:03.997Z,31.40
2023-03-05T13:19:36.150Z,31.40
2023-03-05T13:22:11.580Z,31.60
2023-03-05T13:24:38.696Z,31.40
2023-03-05T13:27:30.570Z,31.40
2023-03-05T13:29:57.501Z,31.10
2023-03-05T13:32:33.037Z,31.30
2023-03-05T13:35:01.330Z,31.20
2023-03-05T13:37:34.792Z,31.20
2023-03-05T13:40:25.615Z,31.10
2023-03-05T13:42:53.789Z,30.90
2023-03-05T13:45:30.472Z,31.30
2023-03-05T13:48:04.344Z,31.10
2023-03-05T13:50:38.621Z,31.00
2023-03-05T13:53:28.983Z,31.10
2023-03-05T13:56:12.837Z,30.90
2023-03-05T13:58:52.837Z,31.00
2023-03-05T14:01:56.478Z,30.90
2023-03-05T14:04:35.797Z,30.90
2023-03-05T14:07:31.673Z,30.90
2023-03-05T14:10:00.154Z,30.80
2023-03-05T14:12:41.299Z,31.00
2023-03-05T14:15:30.688Z,30.60
2023-03-05T14:18:12.772Z,30.70
2023-03-05T14:21:00.780Z,30.70
2023-03-05T14:23:44.503Z,30.80
2023-03-05T14:26:41.613Z,30.60
2023-03-05T14:29:11.507Z,30.50
2023-03-05T14:32:02.769Z,30.60
2023-03-05T14:34:39.631Z,30.60
2023-03-05T14:37:45.383Z,30.50
2023-03-05T14:40:15.136Z,30.40
2023-03-05T14:43:01.786Z,30.50
2023-03-05T14:45:36.677Z,30.50
2023-03-05T14:48:07.247Z,30.30
2023-03-05T14:50:44.465Z,30.40
2023-03-05T14:53:19.110Z,30.40
2023-03-05T14:55:51.223Z,30.20
2023-03-05T14:58:25.931Z,30.10
2023-03-05T15:00:55.596Z,30.40
2023-03-05T15:03:24.975Z,30.40
2023-03-05T15:05:56.810Z,30.60
2023-03-05T15:08:31.919Z,30.30
2023-03-05T15:11:01.307Z,30.20
2023-03-05T15:13:28.417Z,30.30
2023-03-05T15:15:56.024Z,30.20
2023-03-05T15:18:23.861Z,30.20
2023-03-05T15:20:53.189Z,30.20
2023-03-05T15:23:20.629Z,30.20
2023-03-05T15:25:47.835Z,30.20
2023-03-05T15:28:15.784Z,30.20
2023-03-05T15:30:46.882Z,30.20
2023-03-05T15:33:17.424Z,30.20
2023-03-05T15:35:44.913Z,30.50
2023-03-05T15:38:11.981Z,30.10
2023-03-05T15:40:39.292Z,30.20
2023-03-05T15:43:06.240Z,30.20
2023-03-05T15:45:35.892Z,30.20
2023-03-05T15:48:03.161Z,30.10
2023-03-05T15:50:30.295Z,30.20
2023-03-05T15:52:58.609Z,30.10
2023-03-05T15:55:26.261Z,30.10
2023-03-05T15:57:56.813Z,30.10
2023-03-05T16:00:31.191Z,30.10
2023-03-05T16:02:58.348Z,30.00
2023-03-05T16:05:25.802Z,30.00
2023-03-05T16:07:54.939Z,30.10
2023-03-05T16:10:26.817Z,30.10
2023-03-05T16:13:04.181Z,30.00
2023-03-05T16:15:33.343Z,30.00
2023-03-05T16:18:06.012Z,30.00
2023-03-05T16:20:33.255Z,30.00
2023-03-05T16:23:00.329Z,30.00
2023-03-05T16:25:27.383Z,30.00
2023-03-05T16:27:54.332Z,30.00
2023-03-05T16:30:23.891Z,30.00
2023-03-05T16:32:53.552Z,30.00
2023-03-05T16:35:23.737Z,30.00
2023-03-05T16:37:51.376Z,30.00
2023-03-05T16:40:18.561Z,30.50
2023-03-05T16:42:45.555Z,30.00
2023-03-05T16:45:13.399Z,30.00
2023-03-05T16:47:44.013Z,30.00
2023-03-05T16:50:12.518Z,30.00
2023-03-05T16:52:39.807Z,29.90
2023-03-05T16:55:09.680Z,30.00
2023-03-05T16:57:40.091Z,30.00
2023-03-05T17:00:10.831Z,30.00
2023-03-05T17:02:40.469Z,30.00
2023-03-05T17:05:08.004Z,30.00
2023-03-05T17:07:34.951Z,30.00
2023-03-05T17:10:02.090Z,30.00
2023-03-05T17:12:31.373Z,30.00
2023-03-05T17:14:58.858Z,30.10
2023-03-05T17:17:25.828Z,30.70
2023-03-05T17:19:52.790Z,30.10
2023-03-05T17:22:19.814Z,30.20
2023-03-05T17:24:48.100Z,30.90
2023-03-05T17:27:18.741Z,30.40
2023-03-05T17:29:46.161Z,30.40
2023-03-05T17:32:13.201Z,30.20
2023-03-05T17:34:41.461Z,30.10
2023-03-05T17:37:08.518Z,30.20
2023-03-05T17:39:35.563Z,30.10
2023-03-05T17:42:02.547Z,30.10
2023-03-05T17:44:29.630Z,30.00
2023-03-05T17:46:56.682Z,30.00
2023-03-05T17:49:23.755Z,30.00
2023-03-05T17:51:50.916Z,30.00
2023-03-05T17:54:17.969Z,30.20
2023-03-05T17:56:45.043Z,30.00
2023-03-05T17:59:12.160Z,30.00
2023-03-05T18:01:39.169Z,30.00
2023-03-05T18:04:06.212Z,30.00
2023-03-05T18:06:33.343Z,29.90
2023-03-05T18:09:00.380Z,29.90
2023-03-05T18:11:28.951Z,29.90
2023-03-05T18:13:56.114Z,29.90
2023-03-05T18:16:25.268Z,29.90
2023-03-05T18:18:52.946Z,29.90
2023-03-05T18:21:22.727Z,30.00
2023-03-05T18:23:51.369Z,30.00
2023-03-05T18:26:18.555Z,30.00
2023-03-05T18:28:45.810Z,30.00
2023-03-05T18:31:13.018Z,30.00
2023-03-05T18:33:40.829Z,30.00
2023-03-05T18:36:10.802Z,30.00
2023-03-05T18:38:38.582Z,30.00
2023-03-05T18:41:06.520Z,29.90
2023-03-05T18:43:34.169Z,30.10
2023-03-05T18:46:04.953Z,30.20
2023-03-05T18:48:32.292Z,30.10
2023-03-05T18:51:01.238Z,30.00
2023-03-05T18:53:29.435Z,30.00
2023-03-05T18:55:56.622Z,30.00
2023-03-05T18:58:25.930Z,30.00
2023-03-05T19:00:53.242Z,30.00
2023-03-05T19:03:22.544Z,30.00
2023-03-05T19:05:51.159Z,30.00
2023-03-05T19:08:19.214Z,30.10
2023-03-05T19:10:47.596Z,30.00
2023-03-05T19:13:39.958Z,30.60
2023-03-05T19:16:20.764Z,30.00
2023-03-05T19:19:15.987Z,29.90
2023-03-05T19:21:50.121Z,29.90
2023-03-05T19:24:18.001Z,29.90
2023-03-05T19:26:46.694Z,29.90
2023-03-05T19:29:14.722Z,29.90
2023-03-05T19:31:42.129Z,29.90
2023-03-05T19:34:09.264Z,29.90
2023-03-05T19:36:36.488Z,29.90
2023-03-05T19:39:06.186Z,29.90
2023-03-05T19:41:34.327Z,29.90
2023-03-05T19:44:01.412Z,29.90
2023-03-05T19:46:28.793Z,29.90
2023-03-05T19:48:56.104Z,29.90
2023-03-05T19:51:25.899Z,29.90
2023-03-05T19:53:53.884Z,29.90
2023-03-05T19:56:21.367Z,29.90
2023-03-05T19:58:49.109Z,29.90
2023-03-05T20:01:26.176Z,29.90
2023-03-05T20:03:58.728Z,29.90
2023-03-05T20:06:29.352Z,29.90
2023-03-05T20:08:57.317Z,29.90
2023-03-05T20:11:25.760Z,29.90
2023-03-05T20:13:53.803Z,29.90
2023-03-05T20:16:27.980Z,29.90
2023-03-05T20:18:56.260Z,29.90
2023-03-05T20:21:28.063Z,29.90
2023-03-05T20:23:58.889Z,29.90
2023-03-05T20:26:27.606Z,29.90
2023-03-05T20:28:56.591Z,29.90
2023-03-05T20:31:26.937Z,29.90
2023-03-05T20:33:56.193Z,29.90
2023-03-05T20:36:24.501Z,29.90
2023-03-05T20:38:51.524Z,29.90
2023-03-05T20:41:20.855Z,29.90
2023-03-05T20:43:51.248Z,30.40
2023-03-05T20:46:21.382Z,29.90
2023-03-05T20:48:51.391Z,29.90
2023-03-05T20:51:38.043Z,29.90
2023-03-05T20:54:10.956Z,29.90
2023-03-05T20:56:38.255Z,29.90
2023-03-05T20:59:08.928Z,29.90
2023-03-05T21:01:39.396Z,29.90
2023-03-05T21:04:07.184Z,29.90
2023-03-05T21:06:34.727Z,29.90
2023-03-05T21:09:02.103Z,29.90
2023-03-05T21:11:29.098Z,29.90
2023-03-05T21:13:56.199Z,29.90
2023-03-05T21:16:27.082Z,29.90
2023-03-05T21:18:56.030Z,29.90
2023-03-05T21:21:23.663Z,30.00
2023-03-05T21:23:52.090Z,29.90
2023-03-05T21:26:19.076Z,29.90
2023-03-05T21:28:46.081Z,29.90
2023-03-05T21:31:21.477Z,29.90
2023-03-05T21:33:51.398Z,29.90
2023-03-05T21:36:20.161Z,29.90
2023-03-05T21:38:50.091Z,30.00
2023-03-05T21:41:18.344Z,30.50
2023-03-05T21:43:45.384Z,29.90
2023-03-05T21:46:14.111Z,29.90
2023-03-05T21:48:41.193Z,29.90
2023-03-05T21:51:13.703Z,29.90
2023-03-05T21:53:40.726Z,29.90
2023-03-05T21:56:12.250Z,30.00
2023-03-05T21:58:39.357Z,30.00
2023-03-05T22:01:06.416Z,29.90
2023-03-05T22:03:33.938Z,29.90
2023-03-05T22:06:01.063Z,29.90
2023-03-05T22:08:29.879Z,29.90
2023-03-05T22:10:57.052Z,29.90
2023-03-05T22:13:23.997Z,29.90
2023-03-05T22:15:55.211Z,29.90
2023-03-05T22:18:27.109Z,29.90
2023-03-05T22:20:56.013Z,29.90
2023-03-05T22:23:28.021Z,29.90
2023-03-05T22:26:06.257Z,29.90
2023-03-05T22:28:35.307Z,29.90
2023-03-05T22:31:02.639Z,30.30
2023-03-05T22:33:30.643Z,29.80
2023-03-05T22:35:59.406Z,29.90
2023-03-05T22:38:26.608Z,29.80
2023-03-05T22:40:53.666Z,29.80
2023-03-05T22:43:21.135Z,29.90
2023-03-05T22:45:48.686Z,29.80
2023-03-05T22:48:16.403Z,29.80
2023-03-05T22:50:45.703Z,29.80
2023-03-05T22:53:13.106Z,29.80
2023-03-05T22:55:43.103Z,29.80
2023-03-05T22:58:10.647Z,29.80
2023-03-05T23:00:38.310Z,29.80
2023-03-05T23:03:06.408Z,29.80
2023-03-05T23:05:35.376Z,29.80
2023-03-05T23:08:02.389Z,30.30
2023-03-05T23:10:29.736Z,29.80
2023-03-05T23:12:59.821Z,29.80
2023-03-05T23:15:38.735Z,29.70
2023-03-05T23:18:06.736Z,29.80
2023-03-05T23:20:36.813Z,29.70
2023-03-05T23:23:04.385Z,29.70
2023-03-05T23:25:34.944Z,29.70
2023-03-05T23:28:03.735Z,29.70
2023-03-05T23:30:37.823Z,29.70
2023-03-05T23:33:10.932Z,29.80
2023-03-05T23:35:41.942Z,29.80
2023-03-05T23:38:15.353Z,29.70
2023-03-05T23:40:49.443Z,29.90
2023-03-05T23:43:18.895Z,29.70
2023-03-05T23:45:49.293Z,29.70
2023-03-05T23:48:18.130Z,29.70
2023-03-05T23:50:47.763Z,29.70
2023-03-05T23:53:28.448Z,29.70
2023-03-05T23:55:57.018Z,29.80
2023-03-05T23:58:24.526Z,29.70
